createdAt,value
2023-01-10T00:00:29.305Z,6.04
2023-01-10T00:02:56.906Z,6.03
2023-01-10T00:05:25.758Z,6.02
2023-01-10T00:07:53.297Z,6.01
2023-01-10T00:10:20.782Z,6.02
2023-01-10T00:13:05.978Z,6.03
2023-01-10T00:15:34.082Z,6.02
2023-01-10T00:18:01.589Z,6.03
2023-01-10T00:20:30.461Z,6.03
2023-01-10T00:22:59.524Z,6.04
2023-01-10T00:25:27.063Z,6.05
2023-01-10T00:28:02.680Z,6.07
2023-01-10T00:30:34.241Z,6.08
2023-01-10T00:33:05.784Z,6.08
2023-01-10T00:35:34.918Z,6.09
2023-01-10T00:38:05.781Z,6.17
2023-01-10T00:40:34.626Z,6.08
2023-01-10T00:43:19.894Z,6.11
2023-01-10T00:45:47.515Z,6.11
2023-01-10T00:48:17.335Z,6.13
2023-01-10T00:50:48.208Z,6.12
2023-01-10T00:53:16.190Z,6.12
2023-01-10T00:55:44.503Z,6.09
2023-01-10T00:58:16.160Z,6.13
2023-01-10T01:00:46.734Z,6.09
2023-01-10T01:03:16.309Z,6.10
2023-01-10T01:05:44.850Z,6.10
2023-01-10T01:08:14.839Z,6.08
2023-01-10T01:10:42.579Z,6.03
2023-01-10T01:13:11.626Z,6.00
2023-01-10T01:15:39.198Z,6.01
2023-01-10T01:18:08.200Z,5.95
2023-01-10T01:23:29.109Z,5.87
2023-01-10T01:25:57.509Z,5.84
2023-01-10T01:28:25.180Z,5.79
2023-01-10T01:30:53.714Z,5.77
2023-01-10T01:33:21.861Z,5.72
2023-01-10T01:35:50.475Z,5.69
2023-01-10T01:38:19.070Z,5.64
2023-01-10T01:40:49.789Z,5.69
2023-01-10T01:43:23.162Z,5.58
2023-01-10T01:45:52.696Z,5.57
2023-01-10T01:48:23.627Z,5.57
2023-01-10T01:50:56.343Z,5.65
2023-01-10T01:53:27.199Z,5.53
2023-01-10T01:56:00.192Z,5.53
2023-01-10T01:58:29.801Z,5.50
2023-01-10T02:01:00.573Z,5.50
2023-01-10T02:03:29.920Z,5.50
2023-01-10T02:05:58.773Z,5.51
2023-01-10T02:08:26.341Z,5.50
2023-01-10T02:10:56.495Z,5.48
2023-01-10T02:13:27.152Z,5.48
2023-01-10T02:15:55.360Z,5.46
2023-01-10T02:18:23.531Z,5.49
2023-01-10T02:21:02.311Z,5.46
2023-01-10T02:23:48.328Z,5.49
2023-01-10T02:26:38.234Z,5.48
2023-01-10T02:29:25.618Z,5.46
2023-01-10T02:32:08.387Z,5.49
2023-01-10T02:34:45.663Z,5.53
2023-01-10T02:37:18.207Z,5.50
2023-01-10T02:39:54.359Z,5.56
2023-01-10T02:42:26.662Z,5.54
2023-01-10T02:44:57.330Z,5.53
2023-01-10T02:47:27.978Z,5.53
2023-01-10T02:49:55.534Z,5.51
2023-01-10T02:52:24.697Z,5.53
2023-01-10T02:54:55.813Z,5.53
2023-01-10T02:57:34.452Z,5.51
2023-01-10T03:00:21.616Z,5.48
2023-01-10T03:02:58.497Z,5.45
2023-01-10T03:05:30.141Z,5.44
2023-01-10T03:08:02.158Z,5.42
2023-01-10T03:10:31.748Z,5.39
2023-01-10T03:13:01.980Z,5.38
2023-01-10T03:15:31.260Z,5.34
2023-01-10T03:18:02.913Z,5.31
2023-01-10T03:20:33.132Z,5.27
2023-01-10T03:23:03.210Z,5.23
2023-01-10T03:25:34.133Z,5.23
2023-01-10T03:28:06.215Z,5.17
2023-01-10T03:30:39.336Z,5.14
2023-01-10T03:33:12.227Z,5.13
2023-01-10T03:35:49.386Z,5.12
2023-01-10T03:38:20.224Z,5.11
2023-01-10T03:40:55.556Z,5.08
2023-01-10T03:43:49.479Z,5.11
2023-01-10T03:46:21.959Z,5.11
2023-01-10T03:48:51.424Z,5.12
2023-01-10T03:51:20.349Z,5.13
2023-01-10T03:53:47.890Z,5.11
2023-01-10T03:56:15.753Z,5.12
2023-01-10T03:58:43.247Z,5.10
2023-01-10T04:01:12.557Z,5.17
2023-01-10T04:03:40.153Z,5.13
2023-01-10T04:06:10.194Z,5.10
2023-01-10T04:08:37.693Z,5.06
2023-01-10T04:11:05.826Z,5.05
2023-01-10T04:13:33.286Z,5.05
2023-01-10T04:16:01.111Z,5.04
2023-01-10T04:18:32.494Z,5.01
2023-01-10T04:21:00.034Z,4.97
2023-01-10T04:23:28.936Z,4.94
2023-01-10T04:25:56.444Z,4.93
2023-01-10T04:28:26.199Z,4.92
2023-01-10T04:30:55.543Z,4.93
2023-01-10T04:33:23.740Z,4.90
2023-01-10T04:35:52.640Z,4.92
2023-01-10T04:38:20.107Z,4.92
2023-01-10T04:40:55.195Z,4.89
2023-01-10T04:43:23.353Z,4.89
2023-01-10T04:45:51.047Z,4.90
2023-01-10T04:48:19.745Z,4.90
2023-01-10T04:50:50.098Z,4.93
2023-01-10T04:53:17.612Z,4.93
2023-01-10T04:55:45.490Z,4.95
2023-01-10T04:58:14.577Z,4.97
2023-01-10T05:00:45.546Z,5.00
2023-01-10T05:03:13.077Z,5.04
2023-01-10T05:05:41.222Z,5.04
2023-01-10T05:08:13.204Z,5.06
2023-01-10T05:10:42.208Z,5.09
2023-01-10T05:13:09.766Z,5.15
2023-01-10T05:15:40.323Z,5.16
2023-01-10T05:18:07.796Z,5.15
2023-01-10T05:20:35.475Z,5.16
2023-01-10T05:23:03.225Z,5.16
2023-01-10T05:25:58.222Z,5.18
2023-01-10T05:28:27.484Z,5.19
2023-01-10T05:30:57.968Z,5.19
2023-01-10T05:33:25.558Z,5.21
2023-01-10T05:35:54.786Z,5.22
2023-01-10T05:38:23.193Z,5.21
2023-01-10T05:40:55.592Z,5.21
2023-01-10T05:43:23.147Z,5.20
2023-01-10T05:45:52.367Z,5.23
2023-01-10T05:48:21.369Z,5.20
2023-01-10T05:50:50.341Z,5.20
2023-01-10T05:53:18.134Z,5.18
2023-01-10T05:55:54.243Z,5.22
2023-01-10T05:58:21.762Z,5.20
2023-01-10T06:00:49.298Z,5.18
2023-01-10T06:03:17.360Z,5.16
2023-01-10T06:05:48.651Z,5.17
2023-01-10T06:08:16.472Z,5.21
2023-01-10T06:10:44.025Z,5.25
2023-01-10T06:13:12.153Z,5.20
2023-01-10T06:16:04.152Z,5.20
2023-01-10T06:18:33.217Z,5.25
2023-01-10T06:21:02.003Z,5.22
2023-01-10T06:23:30.563Z,5.20
2023-01-10T06:26:01.503Z,5.22
2023-01-10T06:28:29.337Z,5.17
2023-01-10T06:30:57.249Z,5.17
2023-01-10T06:33:25.068Z,5.16
2023-01-10T06:35:52.639Z,5.16
2023-01-10T06:38:21.994Z,5.16
2023-01-10T06:40:49.570Z,5.18
2023-01-10T06:43:17.115Z,5.12
2023-01-10T06:45:44.654Z,5.09
2023-01-10T06:48:12.154Z,5.07
2023-01-10T06:50:39.659Z,5.10
2023-01-10T06:53:07.124Z,5.07
2023-01-10T06:55:36.016Z,4.99
2023-01-10T06:58:04.510Z,4.97
2023-01-10T07:00:32.363Z,4.95
2023-01-10T07:03:03.457Z,4.91
2023-01-10T07:05:31.068Z,4.91
2023-01-10T07:08:01.165Z,4.88
2023-01-10T07:10:28.748Z,4.88
2023-01-10T07:12:58.484Z,4.86
2023-01-10T07:15:26.060Z,4.84
2023-01-10T07:17:53.587Z,4.83
2023-01-10T07:20:21.628Z,4.81
2023-01-10T07:22:54.315Z,4.78
2023-01-10T07:25:22.705Z,4.76
2023-01-10T07:27:50.346Z,4.75
2023-01-10T07:30:20.236Z,4.75
2023-01-10T07:32:53.323Z,4.79
2023-01-10T07:35:22.222Z,4.81
2023-01-10T07:37:51.191Z,4.81
2023-01-10T07:40:19.838Z,4.88
2023-01-10T07:42:47.610Z,4.88
2023-01-10T07:45:15.085Z,4.86
2023-01-10T07:47:44.349Z,4.88
2023-01-10T07:50:12.621Z,4.85
2023-01-10T07:52:40.099Z,4.84
2023-01-10T07:55:10.159Z,4.88
2023-01-10T07:57:37.741Z,4.96
2023-01-10T08:00:06.222Z,4.97
2023-01-10T08:02:34.796Z,4.94
2023-01-10T08:05:03.982Z,4.95
2023-01-10T08:07:31.929Z,4.98
2023-01-10T08:09:59.734Z,4.98
2023-01-10T08:12:27.637Z,4.99
2023-01-10T08:14:55.200Z,5.04
2023-01-10T08:17:23.264Z,5.07
2023-01-10T08:19:50.802Z,5.05
2023-01-10T08:22:19.856Z,5.05
2023-01-10T08:24:48.573Z,5.06
2023-01-10T08:27:42.266Z,5.07
2023-01-10T08:30:10.506Z,5.11
2023-01-10T08:32:38.232Z,5.13
2023-01-10T08:35:06.080Z,5.16
2023-01-10T08:37:35.210Z,5.14
2023-01-10T08:40:03.688Z,5.19
2023-01-10T08:42:32.014Z,5.19
2023-01-10T08:45:00.583Z,5.21
2023-01-10T08:47:29.431Z,5.24
2023-01-10T08:49:56.899Z,5.35
2023-01-10T08:52:25.232Z,5.26
2023-01-10T08:54:54.232Z,5.30
2023-01-10T08:57:21.831Z,5.34
2023-01-10T08:59:49.604Z,5.32
2023-01-10T09:02:17.730Z,5.33
2023-01-10T09:04:45.247Z,5.38
2023-01-10T09:07:14.730Z,5.35
2023-01-10T09:09:42.236Z,5.43
2023-01-10T09:12:25.034Z,5.44
2023-01-10T09:14:53.523Z,5.54
2023-01-10T09:17:21.165Z,5.50
2023-01-10T09:19:48.828Z,5.47
2023-01-10T09:22:16.410Z,5.46
2023-01-10T09:24:44.562Z,5.45
2023-01-10T09:27:13.477Z,5.47
2023-01-10T09:29:40.933Z,5.51
2023-01-10T09:32:09.891Z,5.54
2023-01-10T09:34:37.360Z,5.54
2023-01-10T09:37:04.935Z,5.57
2023-01-10T09:39:32.490Z,5.59
2023-01-10T09:42:07.210Z,5.62
2023-01-10T09:44:43.169Z,5.68
2023-01-10T09:47:22.775Z,5.68
2023-01-10T09:49:58.478Z,5.66
2023-01-10T09:52:28.994Z,5.67
2023-01-10T09:54:58.208Z,5.78
2023-01-10T09:57:26.569Z,5.79
2023-01-10T09:59:56.220Z,5.70
2023-01-10T10:02:27.280Z,5.71
2023-01-10T10:05:06.223Z,5.76
2023-01-10T10:07:34.329Z,5.74
2023-01-10T10:10:02.172Z,5.82
2023-01-10T10:12:34.525Z,5.82
2023-01-10T10:15:11.344Z,5.81
2023-01-10T10:17:43.966Z,5.81
2023-01-10T10:20:17.629Z,5.93
2023-01-10T10:22:51.289Z,5.92
2023-01-10T10:25:26.430Z,5.96
2023-01-10T10:28:03.002Z,6.00
2023-01-10T10:30:43.330Z,6.04
2023-01-10T10:33:26.220Z,6.15
2023-01-10T10:35:57.123Z,6.14
2023-01-10T10:38:30.721Z,6.15
2023-01-10T10:40:59.826Z,6.28
2023-01-10T10:43:31.376Z,6.31
2023-01-10T10:46:04.534Z,6.32
2023-01-10T10:48:35.212Z,6.31
2023-01-10T10:51:08.472Z,6.37
2023-01-10T10:53:38.340Z,6.39
2023-01-10T10:56:08.123Z,6.45
2023-01-10T10:58:35.703Z,6.48
2023-01-10T11:01:05.478Z,6.50
2023-01-10T11:03:41.148Z,6.53
2023-01-10T11:06:10.914Z,6.62
2023-01-10T11:08:41.546Z,6.73
2023-01-10T11:11:16.769Z,6.83
2023-01-10T11:13:46.673Z,6.69
2023-01-10T11:16:26.353Z,6.67
2023-01-10T11:19:10.491Z,6.74
2023-01-10T11:21:40.239Z,6.80
2023-01-10T11:24:19.826Z,6.83
2023-01-10T11:26:47.457Z,6.86
2023-01-10T11:29:17.209Z,6.87
2023-01-10T11:31:46.721Z,6.81
2023-01-10T11:34:21.255Z,6.79
2023-01-10T11:36:55.722Z,6.83
2023-01-10T11:39:23.329Z,6.93
2023-01-10T11:41:53.119Z,6.87
2023-01-10T11:44:24.835Z,6.97
2023-01-10T11:46:55.644Z,6.95
2023-01-10T11:49:27.265Z,6.92
2023-01-10T11:51:58.240Z,6.90
2023-01-10T11:54:27.119Z,6.89
2023-01-10T11:56:57.217Z,6.99
2023-01-10T11:59:26.363Z,7.03
2023-01-10T12:01:57.443Z,7.02
2023-01-10T12:04:25.789Z,7.00
2023-01-10T12:06:54.683Z,6.96
2023-01-10T12:09:40.660Z,6.99
2023-01-10T12:12:15.856Z,7.01
2023-01-10T12:14:43.455Z,6.98
2023-01-10T12:17:15.333Z,7.07
2023-01-10T12:19:42.865Z,6.97
2023-01-10T12:22:15.235Z,6.95
2023-01-10T12:24:45.022Z,6.93
2023-01-10T12:27:13.908Z,6.96
2023-01-10T12:29:44.037Z,6.94
2023-01-10T12:32:18.353Z,6.99
2023-01-10T12:34:48.205Z,6.99
2023-01-10T12:37:21.294Z,7.04
2023-01-10T12:39:53.281Z,7.04
2023-01-10T12:42:43.460Z,7.09
2023-01-10T12:45:15.241Z,7.05
2023-01-10T12:47:54.473Z,7.03
2023-01-10T12:50:23.246Z,7.10
2023-01-10T12:52:58.237Z,7.06
2023-01-10T12:55:28.586Z,7.04
2023-01-10T12:57:58.454Z,7.08
2023-01-10T13:00:32.789Z,7.08
2023-01-10T13:03:07.182Z,7.15
2023-01-10T13:05:37.236Z,7.14
2023-01-10T13:08:08.214Z,7.10
2023-01-10T13:10:39.466Z,7.20
2023-01-10T13:13:12.475Z,7.11
2023-01-10T13:15:43.231Z,7.10
2023-01-10T13:18:19.569Z,7.14
2023-01-10T13:20:48.222Z,7.15
2023-01-10T13:23:21.791Z,7.16
2023-01-10T13:25:56.889Z,7.12
2023-01-10T13:28:25.828Z,7.12
2023-01-10T13:30:54.703Z,7.10
2023-01-10T13:33:24.951Z,7.19
2023-01-10T13:35:53.683Z,7.19
2023-01-10T13:38:23.073Z,7.20
2023-01-10T13:40:58.367Z,7.18
2023-01-10T13:43:34.477Z,7.20
2023-01-10T13:46:20.630Z,7.22
2023-01-10T13:49:04.455Z,7.17
2023-01-10T13:51:33.935Z,7.14
2023-01-10T13:54:02.309Z,7.16
2023-01-10T13:56:37.565Z,7.25
2023-01-10T13:59:32.712Z,7.27
2023-01-10T14:02:24.151Z,7.19
2023-01-10T14:04:55.288Z,7.24
2023-01-10T14:07:28.198Z,7.22
2023-01-10T14:10:00.223Z,7.26
2023-01-10T14:12:34.241Z,7.26
2023-01-10T14:15:03.733Z,7.22
2023-01-10T14:17:33.292Z,7.25
2023-01-10T14:20:03.965Z,7.26
2023-01-10T14:22:34.114Z,7.28
2023-01-10T14:25:04.389Z,7.34
2023-01-10T14:27:37.225Z,7.26
2023-01-10T14:30:06.975Z,7.30
2023-01-10T14:32:38.185Z,7.24
2023-01-10T14:35:15.132Z,7.21
2023-01-10T14:37:46.332Z,7.20
2023-01-10T14:40:42.878Z,7.27
2023-01-10T14:43:14.247Z,7.28
2023-01-10T14:45:45.993Z,7.20
2023-01-10T14:48:27.879Z,7.29
2023-01-10T14:51:08.076Z,7.28
2023-01-10T14:53:37.051Z,7.29
2023-01-10T14:56:06.243Z,7.29
2023-01-10T14:58:33.724Z,7.21
2023-01-10T15:01:01.348Z,7.21
2023-01-10T15:03:28.909Z,7.17
2023-01-10T15:05:59.360Z,7.28
2023-01-10T15:08:28.404Z,7.23
2023-01-10T15:10:59.511Z,7.20
2023-01-10T15:13:28.512Z,7.28
2023-01-10T15:15:56.455Z,7.16
2023-01-10T15:18:30.270Z,7.11
2023-01-10T15:20:58.249Z,7.14
2023-01-10T15:23:27.241Z,7.18
2023-01-10T15:26:01.369Z,7.08
2023-01-10T15:28:31.255Z,7.07
2023-01-10T15:30:59.671Z,7.16
2023-01-10T15:33:31.815Z,7.10
2023-01-10T15:36:04.388Z,7.14
2023-01-10T15:38:34.230Z,7.08
2023-01-10T15:41:04.361Z,7.07
2023-01-10T15:43:33.222Z,7.16
2023-01-10T15:46:02.376Z,7.13
2023-01-10T15:48:38.249Z,7.21
2023-01-10T15:51:14.011Z,7.16
2023-01-10T15:53:52.049Z,7.12
2023-01-10T15:56:23.053Z,7.17
2023-01-10T15:58:50.626Z,7.05
2023-01-10T16:01:18.225Z,7.04
2023-01-10T16:03:48.574Z,7.02
2023-01-10T16:06:21.729Z,6.99
2023-01-10T16:08:50.232Z,7.09
2023-01-10T16:11:40.305Z,7.01
2023-01-10T16:14:08.398Z,7.02
2023-01-10T16:16:36.151Z,7.10
2023-01-10T16:19:04.358Z,7.07
2023-01-10T16:21:34.979Z,7.05
2023-01-10T16:24:02.716Z,7.02
2023-01-10T16:26:30.279Z,7.01
2023-01-10T16:28:57.790Z,6.98
2023-01-10T16:31:26.882Z,7.02
2023-01-10T16:33:54.451Z,6.99
2023-01-10T16:36:22.308Z,6.93
2023-01-10T16:38:50.719Z,6.92
2023-01-10T16:41:36.420Z,6.93
2023-01-10T16:44:04.089Z,7.11
2023-01-10T16:46:33.190Z,7.03
2023-01-10T16:49:00.979Z,7.10
2023-01-10T16:51:30.217Z,6.95
2023-01-10T16:53:57.816Z,6.93
2023-01-10T16:56:26.166Z,6.99
2023-01-10T16:58:54.992Z,6.93
2023-01-10T17:01:25.291Z,6.92
2023-01-10T17:03:54.389Z,7.02
2023-01-10T17:06:22.239Z,6.94
2023-01-10T17:08:50.050Z,6.99
2023-01-10T17:11:20.819Z,6.91
2023-01-10T17:13:48.556Z,6.97
2023-01-10T17:16:19.531Z,7.11
2023-01-10T17:18:47.508Z,6.96
2023-01-10T17:21:17.891Z,7.00
2023-01-10T17:23:45.519Z,6.90
2023-01-10T17:26:14.064Z,7.03
2023-01-10T17:28:41.955Z,7.05
2023-01-10T17:31:09.860Z,6.90
2023-01-10T17:33:37.556Z,6.95
2023-01-10T17:36:05.265Z,6.94
2023-01-10T17:38:34.155Z,7.05
2023-01-10T17:41:02.997Z,6.92
2023-01-10T17:43:31.101Z,6.89
2023-01-10T17:45:59.785Z,6.80
2023-01-10T17:48:27.776Z,6.82
2023-01-10T17:50:57.393Z,6.80
2023-01-10T17:53:25.057Z,6.74
2023-01-10T17:55:54.416Z,6.74
2023-01-10T17:58:22.265Z,6.64
2023-01-10T18:00:49.903Z,6.73
2023-01-10T18:03:17.567Z,6.63
2023-01-10T18:05:51.713Z,6.57
2023-01-10T18:08:19.717Z,6.53
2023-01-10T18:10:47.252Z,6.39
2023-01-10T18:13:17.421Z,6.42
2023-01-10T18:15:45.652Z,6.42
2023-01-10T18:18:13.715Z,6.25
2023-01-10T18:20:41.943Z,6.25
2023-01-10T18:23:25.468Z,6.36
2023-01-10T18:25:56.702Z,6.24
2023-01-10T18:28:39.598Z,6.17
2023-01-10T18:31:09.155Z,6.18
2023-01-10T18:33:36.803Z,6.18
2023-01-10T18:36:04.632Z,6.11
2023-01-10T18:38:32.484Z,6.21
2023-01-10T18:41:00.106Z,6.19
2023-01-10T18:43:29.822Z,6.28
2023-01-10T18:46:00.736Z,6.10
2023-01-10T18:48:28.518Z,6.32
2023-01-10T18:50:57.377Z,6.21
2023-01-10T18:53:25.954Z,6.11
2023-01-10T18:55:54.187Z,6.25
2023-01-10T18:58:23.685Z,6.16
2023-01-10T19:00:52.791Z,6.13
2023-01-10T19:03:20.949Z,6.12
2023-01-10T19:05:48.439Z,6.21
2023-01-10T19:08:16.374Z,6.06
2023-01-10T19:11:07.172Z,6.21
2023-01-10T19:13:31.629Z,6.12
2023-01-10T19:16:11.331Z,6.08
2023-01-10T19:18:39.294Z,6.19
2023-01-10T19:21:08.797Z,6.01
2023-01-10T19:23:36.678Z,6.06
2023-01-10T19:26:04.220Z,6.18
2023-01-10T19:28:31.729Z,6.10
2023-01-10T19:31:04.603Z,6.14
2023-01-10T19:33:34.600Z,6.05
2023-01-10T19:36:05.579Z,6.19
2023-01-10T19:38:33.123Z,6.12
2023-01-10T19:41:01.383Z,6.04
2023-01-10T19:43:28.940Z,6.10
2023-01-10T19:45:57.304Z,6.12
2023-01-10T19:48:25.167Z,6.13
2023-01-10T19:50:54.948Z,6.13
2023-01-10T19:53:25.257Z,6.13
2023-01-10T19:56:00.444Z,6.20
2023-01-10T19:58:27.939Z,6.12
2023-01-10T20:00:55.839Z,6.22
2023-01-10T20:03:23.401Z,6.16
2023-01-10T20:05:51.241Z,6.27
2023-01-10T20:08:20.449Z,6.27
2023-01-10T20:10:47.962Z,6.32
2023-01-10T20:13:15.687Z,6.30
2023-01-10T20:15:44.558Z,6.30
2023-01-10T20:18:12.824Z,6.25
2023-01-10T20:20:41.578Z,6.29
2023-01-10T20:23:11.475Z,6.32
2023-01-10T20:25:40.357Z,6.29
2023-01-10T20:28:07.888Z,6.40
2023-01-10T20:30:37.443Z,6.48
2023-01-10T20:33:05.034Z,6.45
2023-01-10T20:35:32.651Z,6.45
2023-01-10T20:38:00.147Z,6.50
2023-01-10T20:40:27.731Z,6.51
2023-01-10T20:42:56.605Z,6.46
2023-01-10T20:45:24.224Z,6.54
2023-01-10T20:47:53.350Z,6.60
2023-01-10T20:50:21.432Z,6.63
2023-01-10T20:52:49.006Z,6.54
2023-01-10T20:55:19.733Z,6.59
2023-01-10T20:57:47.431Z,6.65
2023-01-10T21:00:17.849Z,6.67
2023-01-10T21:02:45.535Z,6.73
2023-01-10T21:05:13.060Z,6.62
2023-01-10T21:07:41.258Z,6.79
2023-01-10T21:10:09.465Z,6.67
2023-01-10T21:12:37.648Z,6.66
2023-01-10T21:15:05.384Z,6.76
2023-01-10T21:17:34.310Z,6.69
2023-01-10T21:20:05.361Z,6.70
2023-01-10T21:22:32.913Z,6.72
2023-01-10T21:25:00.573Z,6.70
2023-01-10T21:27:30.731Z,6.67
2023-01-10T21:29:58.628Z,6.66
2023-01-10T21:32:26.164Z,6.58
2023-01-10T21:34:57.613Z,6.59
2023-01-10T21:37:26.369Z,6.67
2023-01-10T21:39:53.943Z,6.64
2023-01-10T21:42:38.093Z,6.59
2023-01-10T21:45:07.133Z,6.66
2023-01-10T21:47:35.789Z,6.66
2023-01-10T21:50:05.696Z,6.72
2023-01-10T21:52:33.252Z,6.75
2023-01-10T21:55:01.378Z,6.74
2023-01-10T21:57:29.222Z,6.75
2023-01-10T21:59:57.075Z,6.83
2023-01-10T22:02:27.183Z,6.84
2023-01-10T22:04:56.206Z,6.84
2023-01-10T22:07:26.495Z,6.89
2023-01-10T22:09:54.506Z,6.88
2023-01-10T22:12:22.721Z,6.86
2023-01-10T22:14:50.422Z,6.95
2023-01-10T22:17:17.987Z,6.95
2023-01-10T22:19:45.501Z,7.00
2023-01-10T22:22:13.862Z,6.98
2023-01-10T22:24:47.248Z,7.00
2023-01-10T22:27:17.136Z,7.22
2023-01-10T22:29:45.207Z,7.12
2023-01-10T22:32:13.789Z,7.18
2023-01-10T22:34:41.310Z,7.21
2023-01-10T22:37:08.842Z,7.18
2023-01-10T22:39:36.632Z,7.33
2023-01-10T22:42:05.568Z,7.39
2023-01-10T22:44:33.113Z,7.45
2023-01-10T22:47:00.696Z,7.36
2023-01-10T22:49:28.303Z,7.37
2023-01-10T22:51:55.791Z,7.44
2023-01-10T22:54:23.316Z,7.42
2023-01-10T22:56:50.824Z,7.48
2023-01-10T22:59:19.719Z,7.46
2023-01-10T23:01:47.518Z,7.54
2023-01-10T23:04:16.791Z,7.60
2023-01-10T23:06:44.520Z,7.60
2023-01-10T23:09:12.095Z,7.69
2023-01-10T23:11:40.379Z,7.75
2023-01-10T23:14:07.926Z,7.75
2023-01-10T23:16:36.872Z,7.75
2023-01-10T23:19:04.758Z,7.82
2023-01-10T23:21:32.467Z,7.80
2023-01-10T23:24:00.302Z,7.80
2023-01-10T23:26:28.105Z,7.78
2023-01-10T23:28:56.529Z,7.88
2023-01-10T23:31:29.280Z,7.92
2023-01-10T23:33:59.233Z,7.93
2023-01-10T23:36:27.699Z,7.89
2023-01-10T23:38:55.231Z,7.96
2023-01-10T23:41:24.081Z,7.92
2023-01-10T23:43:51.966Z,8.04
2023-01-10T23:46:19.567Z,7.98
2023-01-10T23:48:48.361Z,8.04
2023-01-10T23:51:20.290Z,7.96
2023-01-10T23:53:48.662Z,7.97
2023-01-10T23:56:16.475Z,8.08
2023-01-10T23:58:44.091Z,8.08
